Time;durP1;ratioP1;P1;durP2;ratioP2;P2;SDS_P1;SDS_P2;PMS_P1;PMS_P2;Temp;Humidity;BMP_temperature;BMP_pressure;BME280_temperature;BME280_humidity;BME280_pressure;Samples;Min_cycle;Max_cycle;Signal;HPM_P1;HPM_P2
2022/07/10 00:00:14;;;;;;;2.58;1.55;;;14.90;99.90;;;;;;5033757;28;20188;-81
2022/07/10 00:02:42;;;;;;;2.15;1.50;;;14.90;99.90;;;;;;5036074;28;20556;-82
2022/07/10 00:05:08;;;;;;;2.17;1.50;;;14.80;99.90;;;;;;5041744;28;20184;-81
2022/07/10 00:07:34;;;;;;;2.10;1.55;;;14.80;99.90;;;;;;5038860;28;20212;-81
2022/07/10 00:10:00;;;;;;;1.98;1.77;;;14.80;99.90;;;;;;5037245;28;20180;-81
2022/07/10 00:12:26;;;;;;;2.15;1.60;;;14.70;99.90;;;;;;5036760;28;20184;-81
2022/07/10 00:14:52;;;;;;;2.97;1.65;;;14.70;99.90;;;;;;5035204;28;20192;-82
2022/07/10 00:17:17;;;;;;;3.67;2.33;;;14.70;99.90;;;;;;5034132;28;20188;-83
2022/07/10 00:19:43;;;;;;;2.15;1.70;;;14.70;99.90;;;;;;5016113;28;20188;-81
2022/07/10 00:22:09;;;;;;;1.70;1.60;;;14.70;99.90;;;;;;5033416;28;20212;-80
2022/07/10 00:24:34;;;;;;;2.97;1.85;;;14.70;99.90;;;;;;5015209;28;20239;-81
2022/07/10 00:27:00;;;;;;;2.30;1.50;;;14.60;99.90;;;;;;5015569;28;20184;-81
2022/07/10 00:29:26;;;;;;;4.22;1.77;;;14.60;99.90;;;;;;4998743;28;20188;-81
2022/07/10 00:31:51;;;;;;;2.88;1.65;;;14.60;99.90;;;;;;5033391;28;20184;-81
2022/07/10 00:34:17;;;;;;;3.25;2.10;;;14.60;99.90;;;;;;5033249;28;20181;-82
2022/07/10 00:36:43;;;;;;;2.00;1.85;;;14.60;99.90;;;;;;5032900;28;20231;-81
2022/07/10 00:39:09;;;;;;;2.83;2.08;;;14.60;99.90;;;;;;5033092;28;20246;-82
2022/07/10 00:41:35;;;;;;;2.35;1.90;;;14.50;99.90;;;;;;5014892;28;20205;-81
2022/07/10 00:44:04;;;;;;;2.28;1.73;;;14.50;99.90;;;;;;5032949;28;20646;-81
2022/07/10 00:46:30;;;;;;;3.55;2.10;;;14.50;99.90;;;;;;5032704;28;20291;-81
2022/07/10 00:48:57;;;;;;;1.90;1.77;;;14.50;99.90;;;;;;5015342;28;20250;-81
2022/07/10 00:51:28;;;;;;;1.77;1.58;;;14.40;99.90;;;;;;5032375;28;20523;-81
2022/07/10 00:53:54;;;;;;;2.88;1.83;;;14.40;99.90;;;;;;5032999;28;20172;-81
2022/07/10 00:56:23;;;;;;;2.70;1.85;;;14.40;99.90;;;;;;5032843;28;20179;-80
2022/07/10 00:58:49;;;;;;;3.30;2.35;;;14.40;99.90;;;;;;5037136;28;20180;-81
2022/07/10 01:01:16;;;;;;;2.63;2.00;;;14.40;99.90;;;;;;5036991;28;20196;-81
2022/07/10 01:03:42;;;;;;;4.57;2.47;;;14.40;99.90;;;;;;5037012;28;20180;-81
2022/07/10 01:06:07;;;;;;;3.00;2.22;;;14.40;99.90;;;;;;5037145;28;20173;-82
2022/07/10 01:08:33;;;;;;;4.80;2.20;;;14.40;99.90;;;;;;5018882;28;20277;-82
2022/07/10 01:11:00;;;;;;;2.45;1.77;;;14.40;99.90;;;;;;5037465;28;20637;-82
2022/07/10 01:13:26;;;;;;;3.45;1.92;;;14.40;99.90;;;;;;5037179;28;20172;-83
2022/07/10 01:15:52;;;;;;;4.18;2.17;;;14.40;99.90;;;;;;5038693;28;20306;-82
2022/07/10 01:18:19;;;;;;;7.75;2.53;;;14.40;99.90;;;;;;5020443;28;20188;-81
2022/07/10 01:20:44;;;;;;;4.22;2.58;;;14.40;99.90;;;;;;5036801;28;20204;-82
2022/07/10 01:23:10;;;;;;;2.75;2.03;;;14.40;99.90;;;;;;5019471;28;20236;-82
2022/07/10 01:25:36;;;;;;;1.90;1.80;;;14.30;99.90;;;;;;5019923;28;20573;-82
2022/07/10 01:28:02;;;;;;;7.90;2.60;;;14.30;99.90;;;;;;5038111;28;20532;-82
2022/07/10 01:30:27;;;;;;;3.20;1.92;;;14.30;99.90;;;;;;5038399;28;20180;-85
2022/07/10 01:32:53;;;;;;;4.05;2.10;;;14.30;99.90;;;;;;5036526;28;20173;-82
2022/07/10 01:35:19;;;;;;;2.58;2.13;;;14.30;99.90;;;;;;5036671;28;20625;-82
2022/07/10 01:37:45;;;;;;;4.18;3.30;;;14.30;99.90;;;;;;5036512;28;20183;-83
2022/07/10 01:40:12;;;;;;;2.63;1.90;;;14.30;99.90;;;;;;5036466;28;20187;-82
2022/07/10 01:42:38;;;;;;;1.80;1.58;;;14.40;99.90;;;;;;5036200;28;20287;-82
2022/07/10 01:45:09;;;;;;;7.78;4.40;;;14.40;99.90;;;;;;5036474;28;20235;-82
2022/07/10 01:47:35;;;;;;;4.22;1.90;;;14.40;99.90;;;;;;5036209;28;20173;-82
2022/07/10 01:50:01;;;;;;;2.63;1.98;;;14.40;99.90;;;;;;5018796;28;20230;-82
2022/07/10 01:52:26;;;;;;;3.53;2.00;;;14.40;99.90;;;;;;5036072;28;20181;-82
2022/07/10 01:54:52;;;;;;;2.65;1.77;;;14.40;99.90;;;;;;5036105;28;20600;-81
2022/07/10 01:57:18;;;;;;;3.75;2.03;;;14.40;99.90;;;;;;5036207;28;20177;-81
2022/07/10 01:59:44;;;;;;;3.63;1.75;;;14.50;99.90;;;;;;5035864;28;20191;-82
2022/07/10 02:02:10;;;;;;;3.17;2.03;;;14.50;99.90;;;;;;5035911;28;20212;-81
2022/07/10 02:04:41;;;;;;;3.00;2.20;;;14.50;99.90;;;;;;5035689;28;20311;-82
2022/07/10 02:07:18;;;;;;;3.50;2.20;;;14.50;99.90;;;;;;5036017;28;20639;-82
2022/07/10 02:09:45;;;;;;;3.28;2.17;;;14.50;99.90;;;;;;5035683;28;20633;-82
2022/07/10 02:12:12;;;;;;;6.10;2.58;;;14.60;99.90;;;;;;5017822;28;20188;-82
2022/07/10 02:14:39;;;;;;;3.63;2.13;;;14.50;99.90;;;;;;5035757;28;20201;-83
2022/07/10 02:17:05;;;;;;;8.82;2.33;;;14.50;99.90;;;;;;5035673;28;20173;-82
2022/07/10 02:19:32;;;;;;;2.20;1.67;;;14.50;99.90;;;;;;5035663;28;20203;-82
2022/07/10 02:21:58;;;;;;;3.97;2.20;;;14.50;99.90;;;;;;5035557;28;20278;-82
2022/07/10 02:24:24;;;;;;;4.28;2.45;;;14.50;99.90;;;;;;5035674;28;20759;-81
2022/07/10 02:26:49;;;;;;;4.57;2.10;;;14.60;99.90;;;;;;5035497;28;20181;-82
2022/07/10 02:29:15;;;;;;;3.25;2.40;;;14.60;99.90;;;;;;5035671;28;20181;-81
2022/07/10 02:31:41;;;;;;;2.03;1.70;;;14.50;99.90;;;;;;5035695;28;20183;-82
2022/07/10 02:34:08;;;;;;;4.13;2.65;;;14.50;99.90;;;;;;5035407;28;20172;-81
2022/07/10 02:36:34;;;;;;;4.63;2.22;;;14.50;99.90;;;;;;5035993;28;20180;-81
2022/07/10 02:39:00;;;;;;;2.92;1.90;;;14.50;99.90;;;;;;5037631;28;20597;-81
2022/07/10 02:41:26;;;;;;;5.50;2.50;;;14.50;99.90;;;;;;5037669;28;20563;-81
2022/07/10 02:43:51;;;;;;;2.47;2.05;;;14.50;99.90;;;;;;5037536;28;20204;-82
2022/07/10 02:46:17;;;;;;;2.53;1.85;;;14.50;99.90;;;;;;5043784;28;20184;-82
2022/07/10 02:48:42;;;;;;;3.03;2.47;;;14.50;99.90;;;;;;5059820;28;20164;-87
2022/07/10 02:51:08;;;;;;;4.47;2.40;;;14.50;99.90;;;;;;5059537;28;20177;-81
2022/07/10 02:53:34;;;;;;;4.10;2.38;;;12.70;99.90;;;;;;5059575;28;20161;-81
2022/07/10 02:55:59;;;;;;;4.25;2.05;;;14.40;99.90;;;;;;5051439;28;20202;-82
2022/07/10 02:58:25;;;;;;;5.72;3.45;;;14.30;99.90;;;;;;5039221;28;20638;-81
2022/07/10 03:00:51;;;;;;;3.50;2.10;;;14.40;99.90;;;;;;5022131;28;20304;-82
2022/07/10 03:03:17;;;;;;;3.65;1.83;;;14.40;99.90;;;;;;5041872;28;20172;-82
2022/07/10 03:05:44;;;;;;;2.45;2.00;;;14.30;99.90;;;;;;5058647;28;20192;-88
2022/07/10 03:08:10;;;;;;;3.78;2.33;;;14.20;99.90;;;;;;5041657;28;20173;-82
2022/07/10 03:10:36;;;;;;;3.00;2.20;;;14.20;99.90;;;;;;5035371;28;20176;-81
2022/07/10 03:13:02;;;;;;;3.75;2.10;;;14.20;99.90;;;;;;5016712;28;20172;-82
2022/07/10 03:15:28;;;;;;;5.35;2.72;;;14.20;99.90;;;;;;5017021;28;20181;-81
2022/07/10 03:17:53;;;;;;;4.20;2.20;;;14.10;99.90;;;;;;5034189;28;20267;-82
2022/07/10 03:20:19;;;;;;;4.55;3.20;;;14.20;99.90;;;;;;5016383;28;20180;-81
2022/07/10 03:22:44;;;;;;;3.00;2.40;;;14.20;99.90;;;;;;5016385;28;20231;-81
2022/07/10 03:25:10;;;;;;;3.92;2.17;;;14.20;99.90;;;;;;5016185;28;20666;-82
2022/07/10 03:27:36;;;;;;;2.00;1.80;;;14.20;99.90;;;;;;5034034;28;20169;-81
2022/07/10 03:30:02;;;;;;;2.65;2.13;;;14.10;99.90;;;;;;4999815;28;20250;-81
2022/07/10 03:32:27;;;;;;;3.80;2.28;;;14.20;99.90;;;;;;5034291;28;20185;-81
2022/07/10 03:34:53;;;;;;;4.35;2.20;;;14.20;99.90;;;;;;5033885;28;20184;-81
2022/07/10 03:37:19;;;;;;;4.13;2.30;;;14.20;99.90;;;;;;5033752;28;20219;-81
2022/07/10 03:39:44;;;;;;;5.25;2.60;;;14.20;99.90;;;;;;5033675;28;20177;-83
2022/07/10 03:42:10;;;;;;;3.65;2.20;;;14.30;99.90;;;;;;5015930;28;20219;-81
2022/07/10 03:44:35;;;;;;;2.97;2.20;;;14.40;99.90;;;;;;5016358;28;20187;-82
2022/07/10 03:47:02;;;;;;;3.67;2.40;;;14.40;99.90;;;;;;5016059;28;20176;-82
2022/07/10 03:49:27;;;;;;;3.33;2.35;;;14.40;99.90;;;;;;5016723;28;20181;-82
2022/07/10 03:51:53;;;;;;;3.60;2.20;;;14.40;99.90;;;;;;5015583;28;20256;-82
2022/07/10 03:54:19;;;;;;;3.50;1.70;;;14.50;99.90;;;;;;5033835;28;20177;-81
2022/07/10 03:59:28;;;;;;;2.58;1.90;;;14.70;99.90;;;;;;5018870;28;20524;-81
2022/07/10 04:01:54;;;;;;;4.90;2.47;;;14.70;99.90;;;;;;5033521;28;20208;-82
2022/07/10 04:04:20;;;;;;;2.70;1.98;;;14.60;99.90;;;;;;5015900;28;20187;-82
2022/07/10 04:06:45;;;;;;;4.13;2.38;;;14.60;99.90;;;;;;5033588;28;20259;-81
2022/07/10 04:09:11;;;;;;;3.15;2.08;;;14.60;99.90;;;;;;5032998;28;20577;-82
2022/07/10 04:11:36;;;;;;;3.95;1.83;;;14.60;99.90;;;;;;5033178;28;20181;-81
2022/07/10 04:14:02;;;;;;;3.85;1.83;;;14.60;99.90;;;;;;5015369;28;20193;-81
2022/07/10 04:16:27;;;;;;;2.25;1.77;;;14.70;99.90;;;;;;5033331;28;20176;-81
2022/07/10 04:18:53;;;;;;;5.13;2.08;;;14.70;99.90;;;;;;5015441;28;20185;-82
2022/07/10 04:21:19;;;;;;;2.70;2.08;;;14.80;99.90;;;;;;5033402;28;20206;-81
2022/07/10 04:23:45;;;;;;;2.65;2.10;;;14.90;99.90;;;;;;5033222;28;20237;-81
2022/07/10 04:26:10;;;;;;;1.85;1.63;;;15.00;99.90;;;;;;5015131;28;20212;-81
2022/07/10 04:28:36;;;;;;;2.42;1.85;;;15.00;99.90;;;;;;5033016;28;20184;-82
2022/07/10 04:31:01;;;;;;;1.33;1.23;;;15.10;99.90;;;;;;5032200;28;20203;-82
2022/07/10 04:33:27;;;;;;;3.78;2.30;;;15.20;99.90;;;;;;5015817;28;20181;-82
2022/07/10 04:35:53;;;;;;;2.08;1.88;;;15.30;99.90;;;;;;5032737;28;20638;-83
2022/07/10 04:38:18;;;;;;;2.63;1.83;;;15.30;99.90;;;;;;5033418;28;20177;-82
2022/07/10 04:40:44;;;;;;;2.40;1.67;;;15.40;99.90;;;;;;5015512;28;20235;-82
2022/07/10 04:43:12;;;;;;;3.20;2.05;;;15.50;99.90;;;;;;5015200;28;20188;-82
2022/07/10 04:45:38;;;;;;;2.92;1.92;;;15.60;99.90;;;;;;5033216;28;20177;-83
2022/07/10 04:48:04;;;;;;;3.40;1.90;;;15.60;99.90;;;;;;5015576;28;20235;-83
2022/07/10 04:50:30;;;;;;;1.90;1.70;;;15.60;99.90;;;;;;5015376;28;20188;-83
2022/07/10 04:52:56;;;;;;;2.45;1.67;;;15.70;99.90;;;;;;5014944;28;20275;-84
2022/07/10 04:55:22;;;;;;;1.90;1.75;;;15.70;99.90;;;;;;5033022;28;20194;-83
2022/07/10 04:57:48;;;;;;;2.35;1.77;;;15.70;99.90;;;;;;5015246;28;20677;-82
2022/07/10 05:00:14;;;;;;;3.58;1.65;;;15.70;99.90;;;;;;5032582;28;20977;-83
2022/07/10 05:02:40;;;;;;;1.90;1.40;;;15.70;99.90;;;;;;5015458;28;20236;-83
2022/07/10 05:05:05;;;;;;;3.08;1.63;;;15.80;99.90;;;;;;5032596;28;20208;-82
2022/07/10 05:07:31;;;;;;;4.25;1.65;;;15.90;99.90;;;;;;5032719;28;20215;-83
2022/07/10 05:09:57;;;;;;;3.53;1.73;;;15.90;99.90;;;;;;5032583;28;20189;-84
2022/07/10 05:12:22;;;;;;;2.60;1.88;;;16.00;99.90;;;;;;5015285;28;20196;-82
2022/07/10 05:14:48;;;;;;;3.38;1.65;;;16.00;99.90;;;;;;5015112;28;20638;-81
2022/07/10 05:17:14;;;;;;;3.05;1.85;;;16.10;99.90;;;;;;5022016;28;20180;-82
2022/07/10 05:19:39;;;;;;;3.63;1.92;;;16.20;99.90;;;;;;5038989;28;20267;-84
2022/07/10 05:22:05;;;;;;;2.53;1.67;;;17.00;99.90;;;;;;5028847;28;20302;-85
2022/07/10 05:24:30;;;;;;;1.92;1.48;;;16.30;99.90;;;;;;5013406;28;20239;-84
2022/07/10 05:26:56;;;;;;;2.58;1.67;;;16.40;99.90;;;;;;5007223;28;20181;-84
2022/07/10 05:29:22;;;;;;;1.50;1.38;;;16.40;99.90;;;;;;5010670;28;20188;-85
2022/07/10 05:31:47;;;;;;;2.05;1.30;;;16.50;99.90;;;;;;5001678;28;20189;-85
2022/07/10 05:34:13;;;;;;;1.95;1.40;;;16.50;99.90;;;;;;5016388;28;20207;-86
2022/07/10 05:36:38;;;;;;;4.35;1.42;;;16.60;99.90;;;;;;5008572;28;20188;-85
2022/07/10 05:39:04;;;;;;;1.83;1.35;;;16.60;99.90;;;;;;5007249;28;20209;-85
2022/07/10 05:41:32;;;;;;;2.03;1.45;;;16.80;99.90;;;;;;5006264;28;20223;-84
2022/07/10 05:43:58;;;;;;;1.50;1.30;;;16.90;99.90;;;;;;5013217;28;20217;-85
2022/07/10 05:46:24;;;;;;;2.13;1.65;;;17.00;99.90;;;;;;5011101;28;20184;-83
2022/07/10 05:48:49;;;;;;;2.67;1.48;;;17.10;99.90;;;;;;5017184;28;20193;-85
2022/07/10 05:51:15;;;;;;;4.72;1.80;;;17.20;99.90;;;;;;5025136;28;20973;-84
2022/07/10 05:53:41;;;;;;;1.98;1.42;;;17.40;99.90;;;;;;5021391;28;20189;-84
2022/07/10 05:56:06;;;;;;;1.75;1.42;;;17.30;99.90;;;;;;4995233;28;20524;-86
2022/07/10 05:58:32;;;;;;;2.25;1.50;;;17.30;99.90;;;;;;5019373;28;20199;-84
2022/07/10 06:00:58;;;;;;;1.98;1.35;;;17.50;99.90;;;;;;5016121;28;20216;-84
2022/07/10 06:03:24;;;;;;;1.70;1.27;;;17.70;99.90;;;;;;5026121;28;20275;-86
2022/07/10 06:05:49;;;;;;;2.08;1.50;;;17.70;99.90;;;;;;5013869;28;20193;-86
2022/07/10 06:08:15;;;;;;;2.55;0.98;;;17.80;99.90;;;;;;4991664;28;20189;-85
2022/07/10 06:10:43;;;;;;;2.72;1.45;;;17.80;99.90;;;;;;5014022;28;20189;-87
2022/07/10 06:13:13;;;;;;;1.75;1.65;;;17.80;99.90;;;;;;5021711;28;20267;-87
2022/07/10 06:15:39;;;;;;;1.90;1.67;;;17.90;99.90;;;;;;5002157;28;20626;-86
2022/07/10 06:18:04;;;;;;;2.50;1.50;;;17.90;99.90;;;;;;5026602;28;20192;-85
2022/07/10 06:20:31;;;;;;;1.92;1.40;;;18.00;99.90;;;;;;4976697;28;20661;-87
2022/07/10 06:22:57;;;;;;;1.70;1.40;;;18.10;99.90;;;;;;4999747;28;20206;-85
2022/07/10 06:25:23;;;;;;;2.38;1.92;;;18.10;99.90;;;;;;5050654;28;20184;-85
2022/07/10 06:27:49;;;;;;;2.15;1.10;;;18.30;99.90;;;;;;5012782;28;20180;-84
2022/07/10 06:30:15;;;;;;;2.05;1.30;;;18.40;99.90;;;;;;5018870;28;20180;-83
2022/07/10 06:32:41;;;;;;;1.63;1.20;;;18.50;99.90;;;;;;5026230;28;20189;-84
2022/07/10 06:35:07;;;;;;;2.25;1.20;;;18.40;99.90;;;;;;5014294;28;20235;-83
2022/07/10 06:37:34;;;;;;;1.92;1.50;;;18.30;99.90;;;;;;5027015;28;20649;-85
2022/07/10 06:39:59;;;;;;;2.90;1.20;;;18.20;99.90;;;;;;5020856;28;20184;-84
2022/07/10 06:42:25;;;;;;;3.20;1.55;;;18.20;99.90;;;;;;5051335;28;21046;-85
2022/07/10 06:44:51;;;;;;;2.50;1.70;;;18.10;99.90;;;;;;5051146;28;20271;-84
2022/07/10 06:50:07;;;;;;;1.38;1.00;;;17.90;99.90;;;;;;5046657;28;20203;-87
2022/07/10 06:52:33;;;;;;;2.38;1.10;;;17.80;99.90;;;;;;5052483;28;20189;-84
2022/07/10 06:55:00;;;;;;;2.17;1.70;;;17.80;99.90;;;;;;5040163;28;20173;-85
2022/07/10 06:57:26;;;;;;;1.88;1.42;;;17.80;99.90;;;;;;5036425;28;20184;-85
2022/07/10 06:59:52;;;;;;;2.42;1.83;;;18.00;99.90;;;;;;5044048;28;20671;-84
2022/07/10 07:02:18;;;;;;;2.10;1.60;;;18.20;99.90;;;;;;5038806;28;20220;-85
2022/07/10 07:04:46;;;;;;;2.75;1.52;;;18.30;99.90;;;;;;5042389;28;20181;-85
2022/07/10 07:07:13;;;;;;;4.00;1.60;;;18.30;99.90;;;;;;5022994;28;20639;-85
2022/07/10 07:09:39;;;;;;;1.45;1.27;;;18.10;99.90;;;;;;5044348;28;20198;-89
2022/07/10 07:12:06;;;;;;;2.20;1.20;;;18.10;99.90;;;;;;5058568;28;20247;-88
2022/07/10 07:14:32;;;;;;;2.60;1.42;;;17.90;99.90;;;;;;5054141;28;20196;-83
2022/07/10 07:17:00;;;;;;;1.25;0.95;;;17.90;99.90;;;;;;5056292;28;20283;-85
2022/07/10 07:19:32;;;;;;;1.83;1.17;;;18.00;99.90;;;;;;5056146;28;20951;-84
2022/07/10 07:24:44;;;;;;;1.80;1.60;;;18.10;99.90;;;;;;5059420;28;20300;-83
2022/07/10 07:27:11;;;;;;;2.90;1.73;;;18.30;99.90;;;;;;5032131;28;20184;-84
2022/07/10 07:29:37;;;;;;;2.25;1.00;;;18.30;99.90;;;;;;5048286;28;20180;-81
2022/07/10 07:32:03;;;;;;;4.63;2.00;;;18.30;99.90;;;;;;5027338;28;20203;-81
2022/07/10 07:34:30;;;;;;;3.97;1.23;;;18.20;99.90;;;;;;5042723;28;20633;-82
2022/07/10 07:36:57;;;;;;;3.50;1.52;;;18.20;99.90;;;;;;5051051;28;20271;-82
2022/07/10 07:39:22;;;;;;;2.05;1.48;;;18.20;99.90;;;;;;5049186;28;20294;-83
2022/07/10 07:41:48;;;;;;;2.08;1.55;;;18.30;99.90;;;;;;5045641;28;20280;-84
2022/07/10 07:44:15;;;;;;;1.58;1.30;;;18.30;99.90;;;;;;5032610;28;20179;-84
2022/07/10 07:46:41;;;;;;;1.40;1.15;;;18.30;99.90;;;;;;5045933;28;20195;-85
2022/07/10 07:49:07;;;;;;;1.83;1.52;;;18.40;99.90;;;;;;5040766;28;20188;-85
2022/07/10 07:51:33;;;;;;;3.05;1.60;;;18.40;99.90;;;;;;5050178;28;20274;-82
2022/07/10 07:53:58;;;;;;;2.15;1.60;;;18.30;99.90;;;;;;5051031;28;20211;-83
2022/07/10 07:56:24;;;;;;;3.03;1.30;;;18.20;99.90;;;;;;5046052;28;20215;-81
2022/07/10 07:58:52;;;;;;;4.93;1.75;;;18.20;99.90;;;;;;5027880;28;20198;-81
2022/07/10 08:01:19;;;;;;;1.30;1.20;;;18.40;99.90;;;;;;5029706;28;20571;-85
2022/07/10 08:03:45;;;;;;;1.48;0.93;;;18.60;99.90;;;;;;5050800;28;20551;-84
2022/07/10 08:06:11;;;;;;;1.00;0.90;;;18.80;99.90;;;;;;5046158;28;20208;-84
2022/07/10 08:08:37;;;;;;;2.17;1.33;;;18.80;99.90;;;;;;5049774;28;20242;-82
2022/07/10 08:11:03;;;;;;;3.42;1.38;;;19.00;99.90;;;;;;5032452;28;20227;-81
2022/07/10 08:13:29;;;;;;;1.30;1.13;;;19.10;99.90;;;;;;5050854;28;20204;-85
2022/07/10 08:15:55;;;;;;;1.73;1.45;;;19.20;99.90;;;;;;5035739;28;20681;-80
2022/07/10 08:18:21;;;;;;;1.30;1.00;;;19.20;99.90;;;;;;5052802;28;20267;-81
2022/07/10 08:20:46;;;;;;;3.13;1.08;;;19.10;99.90;;;;;;5052990;28;20183;-80
2022/07/10 08:23:12;;;;;;;0.82;0.80;;;19.00;99.90;;;;;;5053482;28;20298;-81
2022/07/10 08:25:38;;;;;;;1.30;0.70;;;18.90;99.90;;;;;;5053711;28;20532;-81
2022/07/10 08:28:09;;;;;;;1.55;0.70;;;18.80;99.90;;;;;;5051946;28;20609;-82
2022/07/10 08:30:35;;;;;;;1.38;0.90;;;18.80;99.90;;;;;;5050281;28;20196;-83
2022/07/10 08:33:01;;;;;;;1.20;0.80;;;18.80;99.90;;;;;;5031710;28;20588;-81
2022/07/10 08:35:26;;;;;;;0.70;0.70;;;19.00;99.90;;;;;;5047904;28;20712;-81
2022/07/10 08:37:52;;;;;;;1.25;0.82;;;19.10;99.90;;;;;;5052473;28;20184;-85
2022/07/10 08:40:22;;;;;;;0.80;0.60;;;19.20;99.90;;;;;;5019257;28;20238;-85
2022/07/10 08:42:48;;;;;;;1.45;0.77;;;19.20;99.90;;;;;;5052644;28;20298;-85
2022/07/10 08:45:14;;;;;;;0.75;0.70;;;19.20;99.90;;;;;;5035541;28;20218;-83
2022/07/10 08:47:46;;;;;;;1.63;0.50;;;19.20;99.90;;;;;;5045418;28;20185;-82
2022/07/10 08:50:16;;;;;;;0.80;0.73;;;19.30;99.90;;;;;;5035647;28;20160;-81
2022/07/10 08:53:06;;;;;;;0.90;0.63;;;19.50;99.90;;;;;;5051692;28;20247;-82
2022/07/10 08:55:32;;;;;;;0.90;0.70;;;19.60;99.90;;;;;;5033651;28;20187;-84
2022/07/10 08:57:59;;;;;;;0.60;0.60;;;19.50;99.90;;;;;;5063564;28;20201;-84
2022/07/10 09:00:25;;;;;;;0.68;0.68;;;19.50;99.90;;;;;;5074949;28;20184;-89
2022/07/10 09:02:52;;;;;;;1.38;1.13;;;19.50;99.90;;;;;;5070718;28;20211;-85
2022/07/10 09:05:19;;;;;;;1.23;0.57;;;19.50;99.90;;;;;;5050711;28;20172;-83
2022/07/10 09:07:45;;;;;;;0.85;0.60;;;19.40;99.90;;;;;;5031761;28;20566;-83
2022/07/10 09:10:11;;;;;;;1.85;0.75;;;19.40;99.90;;;;;;5055464;28;20187;-83
2022/07/10 09:12:58;;;;;;;1.45;0.82;;;19.10;99.90;;;;;;5064473;28;20218;-87
2022/07/10 09:15:26;;;;;;;2.78;1.30;;;19.10;99.90;;;;;;5075643;28;20191;-89
2022/07/10 09:17:56;;;;;;;1.83;1.50;;;19.00;99.90;;;;;;5076685;28;20181;-86
2022/07/10 09:20:31;;;;;;;3.30;1.40;;;18.70;99.90;;;;;;5051227;28;20246;-87
2022/07/10 09:23:18;;;;;;;3.67;1.10;;;18.50;99.90;;;;;;5036953;28;20200;-82
2022/07/10 09:25:49;;;;;;;1.42;0.82;;;18.30;99.90;;;;;;5055514;28;20249;-84
2022/07/10 09:28:17;;;;;;;1.85;1.10;;;18.10;99.90;;;;;;5036425;28;20187;-84
2022/07/10 09:30:44;;;;;;;2.95;1.10;;;18.00;99.90;;;;;;5054801;28;20353;-84
2022/07/10 09:33:27;;;;;;;1.00;0.95;;;17.70;99.90;;;;;;5044989;28;20215;-85
2022/07/10 09:36:04;;;;;;;2.67;0.70;;;17.80;99.90;;;;;;5052588;28;20599;-83
2022/07/10 09:38:46;;;;;;;1.17;1.00;;;17.80;99.90;;;;;;5043102;28;20176;-84
2022/07/10 09:41:16;;;;;;;0.80;0.80;;;17.70;99.90;;;;;;5025473;28;20764;-83
2022/07/10 09:43:52;;;;;;;0.80;0.80;;;17.80;99.90;;;;;;5044325;28;20191;-81
2022/07/10 09:46:21;;;;;;;0.80;0.80;;;17.80;99.90;;;;;;5055151;28;20233;-82
2022/07/10 09:48:47;;;;;;;5.70;0.80;;;17.60;99.90;;;;;;5040813;28;20271;-83
2022/07/10 09:51:13;;;;;;;1.98;1.23;;;17.60;99.90;;;;;;5053872;28;20192;-84
2022/07/10 09:53:44;;;;;;;2.33;0.88;;;17.60;99.90;;;;;;5035803;28;20187;-84
2022/07/10 09:56:12;;;;;;;2.10;1.48;;;17.60;99.90;;;;;;5054101;28;20179;-84
2022/07/10 09:58:39;;;;;;;0.90;0.60;;;17.70;99.90;;;;;;5047374;28;20217;-83
2022/07/10 10:01:07;;;;;;;2.03;0.90;;;17.70;99.90;;;;;;5028834;28;20211;-82
2022/07/10 10:03:38;;;;;;;0.63;0.63;;;17.80;99.90;;;;;;5050580;28;20654;-83
2022/07/10 10:06:11;;;;;;;1.27;0.70;;;17.90;99.90;;;;;;5034544;28;20215;-83
2022/07/10 10:09:01;;;;;;;0.70;0.70;;;17.90;99.90;;;;;;5033264;28;20176;-82
2022/07/10 10:11:30;;;;;;;0.55;0.55;;;18.00;99.90;;;;;;5046467;28;20270;-83
2022/07/10 10:13:57;;;;;;;0.82;0.82;;;18.20;99.90;;;;;;5047411;28;20172;-82
2022/07/10 10:16:26;;;;;;;0.70;0.65;;;18.50;99.90;;;;;;5054866;28;20188;-81
2022/07/10 10:21:39;;;;;;;0.47;0.47;;;18.80;99.90;;;;;;5040546;28;20674;-82
2022/07/10 10:24:06;;;;;;;0.60;0.60;;;19.10;99.90;;;;;;5037994;28;20232;-81
2022/07/10 10:26:32;;;;;;;0.60;0.60;;;18.80;99.90;;;;;;5046575;28;20241;-86
2022/07/10 10:29:02;;;;;;;1.58;0.63;;;18.80;99.90;;;;;;5046588;28;20195;-80
2022/07/10 10:31:29;;;;;;;1.42;0.90;;;19.00;99.90;;;;;;5046775;28;20175;-80
2022/07/10 10:33:56;;;;;;;0.70;0.63;;;19.10;99.90;;;;;;5036672;28;20186;-81
2022/07/10 10:36:41;;;;;;;1.27;0.82;;;19.10;99.90;;;;;;5009841;28;20195;-81
2022/07/10 10:39:16;;;;;;;0.60;0.57;;;19.10;99.90;;;;;;5030486;28;20712;-82
2022/07/10 10:41:45;;;;;;;1.15;0.77;;;19.10;99.90;;;;;;5034175;28;20215;-82
2022/07/10 10:44:15;;;;;;;1.58;0.70;;;19.30;99.90;;;;;;5035681;28;20190;-81
2022/07/10 10:46:50;;;;;;;1.45;0.40;;;19.20;99.90;;;;;;5042887;28;20180;-81
2022/07/10 10:49:17;;;;;;;0.80;0.43;;;19.40;99.90;;;;;;5053104;28;20306;-82
2022/07/10 10:52:03;;;;;;;0.47;0.47;;;19.30;99.90;;;;;;5045485;28;20652;-84
2022/07/10 10:54:55;;;;;;;0.63;0.30;;;19.10;99.90;;;;;;5053870;28;20263;-82
2022/07/10 10:57:22;;;;;;;1.35;0.40;;;19.10;99.90;;;;;;5049217;28;20172;-80
2022/07/10 10:59:52;;;;;;;0.35;0.30;;;19.00;99.80;;;;;;5053759;28;20188;-81
2022/07/10 11:02:34;;;;;;;0.43;0.38;;;19.10;97.70;;;;;;5053413;28;20741;-83
2022/07/10 11:05:20;;;;;;;0.35;0.35;;;19.30;97.70;;;;;;5047990;28;20337;-81
2022/07/10 11:07:55;;;;;;;0.73;0.73;;;19.50;95.40;;;;;;5036791;28;20191;-82
2022/07/10 11:10:30;;;;;;;0.98;0.30;;;19.60;94.80;;;;;;5048870;28;20180;-80
2022/07/10 11:13:06;;;;;;;0.40;0.40;;;19.60;93.10;;;;;;5044700;28;20644;-81
2022/07/10 11:15:33;;;;;;;0.40;0.40;;;19.40;93.60;;;;;;5045008;28;20337;-82
2022/07/10 11:18:07;;;;;;;1.17;0.35;;;18.80;93.80;;;;;;5047710;28;20184;-82
2022/07/10 11:20:50;;;;;;;1.10;0.90;;;19.00;93.40;;;;;;5050313;28;20180;-82
2022/07/10 11:23:43;;;;;;;0.28;0.28;;;18.90;94.90;;;;;;5038544;28;20593;-82
2022/07/10 11:26:34;;;;;;;0.30;0.30;;;19.10;95.20;;;;;;5048660;28;20633;-82
2022/07/10 11:29:05;;;;;;;0.80;0.43;;;19.20;94.50;;;;;;5048903;28;20184;-84
2022/07/10 11:31:34;;;;;;;0.30;0.20;;;19.20;93.20;;;;;;5039959;28;20177;-85
2022/07/10 11:33:59;;;;;;;0.30;0.30;;;19.00;91.40;;;;;;5040868;28;20330;-84
2022/07/10 11:36:28;;;;;;;0.38;0.38;;;18.80;92.30;;;;;;5049489;28;20612;-85
2022/07/10 11:39:06;;;;;;;0.30;0.30;;;18.80;92.50;;;;;;5052445;28;20226;-84
2022/07/10 11:41:32;;;;;;;0.60;0.30;;;18.80;92.30;;;;;;5052706;28;20235;-83
2022/07/10 11:44:02;;;;;;;0.30;0.30;;;18.80;91.70;;;;;;5034504;28;20211;-84
2022/07/10 11:46:33;;;;;;;0.43;0.40;;;18.80;92.40;;;;;;5017398;28;20220;-84
2022/07/10 11:49:04;;;;;;;0.30;0.30;;;18.80;92.30;;;;;;5048149;28;20184;-85
2022/07/10 11:51:33;;;;;;;0.55;0.38;;;18.70;92.80;;;;;;5034409;28;20180;-84
2022/07/10 11:54:11;;;;;;;0.95;0.32;;;18.70;93.20;;;;;;5047297;28;20227;-85
2022/07/10 11:56:41;;;;;;;0.43;0.43;;;18.60;92.30;;;;;;5037139;28;20180;-86
2022/07/10 11:59:10;;;;;;;0.40;0.40;;;18.50;92.40;;;;;;5049339;28;20576;-84
2022/07/10 12:01:42;;;;;;;1.33;0.90;;;18.60;94.40;;;;;;5051809;28;20676;-86
2022/07/10 12:04:09;;;;;;;0.75;0.73;;;18.60;93.40;;;;;;5042003;28;20703;-85
2022/07/10 12:06:37;;;;;;;0.70;0.60;;;18.60;93.40;;;;;;5053035;28;20727;-84
2022/07/10 12:09:05;;;;;;;1.02;0.60;;;18.60;93.50;;;;;;5049553;28;20184;-84
2022/07/10 12:11:32;;;;;;;1.35;0.50;;;18.60;93.20;;;;;;5028608;28;20271;-84
2022/07/10 12:14:19;;;;;;;0.63;0.63;;;18.60;93.40;;;;;;5056247;28;20242;-84
2022/07/10 12:16:49;;;;;;;0.32;0.32;;;18.70;93.30;;;;;;5051303;28;20196;-87
2022/07/10 12:19:17;;;;;;;0.68;0.68;;;18.60;92.50;;;;;;5034308;28;20191;-86
2022/07/10 12:21:44;;;;;;;1.08;0.55;;;18.60;91.30;;;;;;5051217;28;20207;-87
2022/07/10 12:24:11;;;;;;;1.40;0.68;;;18.60;91.60;;;;;;5047028;28;20255;-84
2022/07/10 12:26:44;;;;;;;0.63;0.63;;;18.60;91.60;;;;;;5051241;28;20179;-85
2022/07/10 12:29:29;;;;;;;0.70;0.70;;;18.60;93.10;;;;;;5051718;28;20190;-83
2022/07/10 12:31:57;;;;;;;1.25;1.10;;;18.50;95.10;;;;;;5031671;28;20657;-84
2022/07/10 12:34:37;;;;;;;1.33;1.23;;;18.50;96.10;;;;;;5031074;28;20663;-83
2022/07/10 12:37:13;;;;;;;1.15;0.85;;;18.40;97.10;;;;;;5048049;28;20512;-82
2022/07/10 12:39:53;;;;;;;0.50;0.50;;;18.30;96.70;;;;;;5049792;28;20245;-83
2022/07/10 12:42:45;;;;;;;0.60;0.60;;;18.30;98.50;;;;;;5043607;28;20310;-86
2022/07/10 12:45:15;;;;;;;1.05;0.47;;;18.20;98.30;;;;;;5026198;28;20200;-83
2022/07/10 12:47:49;;;;;;;0.95;0.70;;;18.20;99.80;;;;;;5049864;28;20175;-85
2022/07/10 12:50:17;;;;;;;0.43;0.43;;;18.10;99.90;;;;;;5051302;28;20254;-84
2022/07/10 12:52:43;;;;;;;1.45;0.55;;;18.10;99.90;;;;;;5051321;28;20257;-83
2022/07/10 12:55:21;;;;;;;0.63;0.63;;;18.00;99.90;;;;;;5020374;28;20207;-85
2022/07/10 12:57:50;;;;;;;0.65;0.50;;;18.10;99.90;;;;;;5050863;28;20180;-87
2022/07/10 13:00:36;;;;;;;0.47;0.47;;;18.10;99.90;;;;;;5033960;28;20184;-84
2022/07/10 13:03:08;;;;;;;0.88;0.50;;;18.10;99.90;;;;;;5051643;28;20204;-83